PWSweather.com
Personal Weather Stations
Station Observations
RADILLY
Mcmurray, PA 15317

Mcmurray, PA 15317

Lat: 40.288, Lon: -80.095

Elevation: 1061

Station Type: Ambient WS-2080

http://dillys.org/wx/

Latest ConditionsUpdated 7:00:00 PM EDT Wednesday, Oct 16, 2019
Currently Today's Max Today's Min Today's Average
Temperature 47.7°F8.7°C 60.3°F15.7°C 47.7°F8.7°C 54.1°F12.3°C
Dew Point 43.4°F6.3°C 54.9°F12.7°C 41.3°F5.2°C 47.3°F8.5°C
Winds 3.1 mph WSW5.0 kmh WSW 9.8 mph -15.8 kmh - - 1.5 mph 2.4 kmh
Wind Gusts 5.4 mph8.7 kmh 15.9 mph25.6 kmh - -
Humidity 85% 99% 60% 79%
Pressure 29.73 in1006.8 mb 29.88 in1011.9 mb 29.68 in1005.1 mb -
Precipitation - 0.69 in17.5 mm - -
Hour Temp Dew Point Humidity Winds Wind Gusts Pressure Precip Precip Rate Daily Precip Total
07:00 PM 47.7°F8.7°C 43.4°F6.3°C 85% 3.1 mph WSW5.0 kmh WSW 5.4 mph8.7 kmh 29.73 in1006.8 mb 0.01 in0.3 mm 0.01 in0.3 mm 0.69 in17.5 mm
06:45 PM 48.0°F8.9°C 42.8°F6.0°C 82% 7.6 mph SW12.2 kmh SW 10.7 mph17.2 kmh 29.74 in1007.1 mb 0.00 in0.0 mm 0.00 in0.0 mm 0.68 in17.3 mm
06:30 PM 48.7°F9.3°C 42.5°F5.8°C 79% 7.6 mph WSW12.2 kmh WSW 9.2 mph14.8 kmh 29.73 in1006.8 mb 0.00 in0.0 mm 0.00 in0.0 mm 0.68 in17.3 mm
06:15 PM 48.9°F9.4°C 42.0°F5.6°C 77% 3.1 mph SW5.0 kmh SW 9.2 mph14.8 kmh 29.73 in1006.8 mb 0.00 in0.0 mm 0.00 in0.0 mm 0.68 in17.3 mm
06:00 PM 49.5°F9.7°C 42.2°F5.7°C 76% 3.1 mph WSW5.0 kmh WSW 6.9 mph11.1 kmh 29.73 in1006.8 mb 0.00 in0.0 mm 0.00 in0.0 mm 0.68 in17.3 mm
05:45 PM 49.6°F9.8°C 41.7°F5.4°C 74% 2.2 mph WSW3.5 kmh WSW 6.9 mph11.1 kmh 29.73 in1006.8 mb 0.00 in0.0 mm 0.00 in0.0 mm 0.68 in17.3 mm
05:30 PM 49.8°F9.9°C 41.5°F5.3°C 73% 3.8 mph WSW6.1 kmh WSW 9.2 mph14.8 kmh 29.73 in1006.8 mb 0.00 in0.0 mm 0.00 in0.0 mm 0.68 in17.3 mm
05:15 PM 50.4°F10.2°C 41.3°F5.2°C 71% 5.4 mph W8.7 kmh W 9.2 mph14.8 kmh 29.72 in1006.4 mb 0.00 in0.0 mm 0.00 in0.0 mm 0.68 in17.3 mm
05:00 PM 50.4°F10.2°C 41.7°F5.4°C 72% 3.8 mph WSW6.1 kmh WSW 9.8 mph15.8 kmh 29.72 in1006.4 mb 0.00 in0.0 mm 0.00 in0.0 mm 0.68 in17.3 mm
04:45 PM 50.7°F10.4°C 41.7°F5.4°C 71% 5.4 mph WSW8.7 kmh WSW 14.5 mph23.3 kmh 29.73 in1006.8 mb 0.00 in0.0 mm 0.00 in0.0 mm 0.68 in17.3 mm
04:30 PM 50.9°F10.5°C 42.9°F6.1°C 74% 3.8 mph WSW6.1 kmh WSW 9.8 mph15.8 kmh 29.72 in1006.4 mb 0.00 in0.0 mm 0.00 in0.0 mm 0.68 in17.3 mm
04:15 PM 50.9°F10.5°C 43.6°F6.4°C 76% 4.5 mph WSW7.2 kmh WSW 9.2 mph14.8 kmh 29.72 in1006.4 mb 0.00 in0.0 mm 0.00 in0.0 mm 0.68 in17.3 mm
04:00 PM 51.4°F10.8°C 44.5°F6.9°C 77% 4.5 mph W7.2 kmh W 10.7 mph17.2 kmh 29.72 in1006.4 mb 0.00 in0.0 mm 0.00 in0.0 mm 0.68 in17.3 mm
03:45 PM 51.1°F10.6°C 44.8°F7.1°C 79% 5.4 mph W8.7 kmh W 9.8 mph15.8 kmh 29.71 in1006.1 mb 0.00 in0.0 mm 0.00 in0.0 mm 0.68 in17.3 mm
03:30 PM 50.9°F10.5°C 44.9°F7.2°C 80% 7.6 mph WSW12.2 kmh WSW 14.5 mph23.3 kmh 29.72 in1006.4 mb 0.00 in0.0 mm 0.00 in0.0 mm 0.68 in17.3 mm
03:15 PM 50.9°F10.5°C 45.6°F7.6°C 82% 3.1 mph W5.0 kmh W 12.1 mph19.5 kmh 29.72 in1006.4 mb 0.00 in0.0 mm 0.00 in0.0 mm 0.68 in17.3 mm
03:00 PM 51.1°F10.6°C 48.2°F9.0°C 90% 9.8 mph WSW15.8 kmh WSW 15.9 mph25.6 kmh 29.71 in1006.1 mb 0.00 in0.0 mm 0.00 in0.0 mm 0.68 in17.3 mm
02:45 PM 51.1°F10.6°C 49.4°F9.7°C 94% 3.1 mph WSW5.0 kmh WSW 6.9 mph11.1 kmh 29.71 in1006.1 mb 0.00 in0.0 mm 0.00 in0.0 mm 0.68 in17.3 mm
02:30 PM 51.3°F10.7°C 50.4°F10.2°C 97% 0.7 mph WSW1.1 kmh WSW 4.5 mph7.2 kmh 29.71 in1006.1 mb 0.00 in0.0 mm 0.00 in0.0 mm 0.68 in17.3 mm
02:15 PM 51.3°F10.7°C 51.0°F10.6°C 99% Calm Calm 3.8 mph6.1 kmh 29.72 in1006.4 mb 0.00 in0.0 mm 0.00 in0.0 mm 0.68 in17.3 mm
02:00 PM 50.9°F10.5°C 50.6°F10.3°C 99% 0.7 mph W1.1 kmh W 5.4 mph8.7 kmh 29.72 in1006.4 mb 0.00 in0.0 mm 0.00 in0.0 mm 0.68 in17.3 mm
01:45 PM 51.1°F10.6°C 50.8°F10.4°C 99% Calm Calm 4.5 mph7.2 kmh 29.71 in1006.1 mb 0.00 in0.0 mm 0.00 in0.0 mm 0.68 in17.3 mm
01:30 PM 50.9°F10.5°C 50.6°F10.3°C 99% Calm Calm 2.2 mph3.5 kmh 29.72 in1006.4 mb 0.00 in0.0 mm 0.00 in0.0 mm 0.68 in17.3 mm
01:15 PM 50.7°F10.4°C 50.4°F10.2°C 99% Calm Calm 3.1 mph5.0 kmh 29.72 in1006.4 mb 0.01 in0.3 mm 0.00 in0.0 mm 0.68 in17.3 mm
01:00 PM 50.9°F10.5°C 50.6°F10.3°C 99% 0.7 mph SW1.1 kmh SW 4.5 mph7.2 kmh 29.72 in1006.4 mb 0.03 in0.8 mm 0.00 in0.0 mm 0.68 in17.3 mm
12:45 PM 50.9°F10.5°C 50.6°F10.3°C 99% Calm Calm 3.8 mph6.1 kmh 29.71 in1006.1 mb 0.06 in1.5 mm 0.00 in0.0 mm 0.68 in17.3 mm
12:30 PM 50.9°F10.5°C 50.6°F10.3°C 99% 1.6 mph W2.6 kmh W 3.1 mph5.0 kmh 29.72 in1006.4 mb 0.08 in2.0 mm 0.00 in0.0 mm 0.68 in17.3 mm
12:15 PM 50.9°F10.5°C 50.6°F10.3°C 99% Calm Calm -- 29.72 in1006.4 mb 0.08 in2.0 mm 0.00 in0.0 mm 0.66 in16.8 mm
12:00 PM 50.7°F10.4°C 50.4°F10.2°C 99% Calm Calm -- 29.72 in1006.4 mb 0.08 in2.0 mm 0.01 in0.3 mm 0.64 in16.3 mm
11:45 AM 50.5°F10.3°C 50.3°F10.2°C 99% 1.6 mph W2.6 kmh W 2.2 mph3.5 kmh 29.73 in1006.8 mb 0.07 in1.8 mm 0.00 in0.0 mm 0.61 in15.5 mm
11:30 AM 50.4°F10.2°C 50.1°F10.1°C 99% Calm Calm 3.8 mph6.1 kmh 29.73 in1006.8 mb 0.07 in1.8 mm 0.00 in0.0 mm 0.60 in15.2 mm
11:15 AM 50.2°F10.1°C 49.6°F9.8°C 98% Calm Calm 3.1 mph5.0 kmh 29.73 in1006.8 mb 0.11 in2.8 mm 0.00 in0.0 mm 0.58 in14.7 mm
11:00 AM 50.5°F10.3°C 50.0°F10.0°C 98% 0.7 mph WNW1.1 kmh WNW 4.5 mph7.2 kmh 29.73 in1006.8 mb 0.21 in5.3 mm 0.00 in0.0 mm 0.56 in14.2 mm
10:45 AM 50.9°F10.5°C 50.4°F10.2°C 98% 1.6 mph NW2.6 kmh NW 8.3 mph13.4 kmh 29.73 in1006.8 mb 0.21 in5.3 mm 0.00 in0.0 mm 0.55 in14.0 mm
10:30 AM 51.4°F10.8°C 50.9°F10.5°C 98% 4.5 mph NW7.2 kmh NW 9.8 mph15.8 kmh 29.73 in1006.8 mb 0.21 in5.3 mm 0.12 in3.0 mm 0.53 in13.5 mm
10:15 AM 54.7°F12.6°C 53.8°F12.1°C 97% 8.3 mph NW13.4 kmh NW 12.1 mph19.5 kmh 29.73 in1006.8 mb 0.18 in4.6 mm 0.32 in8.1 mm 0.46 in11.7 mm
10:00 AM 55.8°F13.2°C 54.9°F12.7°C 97% Calm Calm 1.6 mph2.6 kmh 29.69 in1005.4 mb 0.10 in2.5 mm 0.00 in0.0 mm 0.35 in8.9 mm
09:45 AM 55.8°F13.2°C 54.9°F12.7°C 97% Calm Calm 1.6 mph2.6 kmh 29.68 in1005.1 mb 0.13 in3.3 mm 0.00 in0.0 mm 0.33 in8.4 mm
09:30 AM 55.4°F13.0°C 54.3°F12.4°C 96% Calm Calm 3.1 mph5.0 kmh 29.69 in1005.4 mb 0.15 in3.8 mm 0.08 in2.0 mm 0.31 in7.9 mm
09:15 AM 55.2°F12.9°C 54.1°F12.3°C 96% Calm Calm 0.7 mph1.1 kmh 29.69 in1005.4 mb 0.13 in3.3 mm 0.00 in0.0 mm 0.28 in7.1 mm
09:00 AM 55.0°F12.8°C 53.6°F12.0°C 95% Calm Calm 0.7 mph1.1 kmh 29.70 in1005.8 mb 0.13 in3.3 mm 0.04 in1.0 mm 0.25 in6.4 mm
08:45 AM 54.9°F12.7°C 53.2°F11.8°C 94% Calm Calm 1.6 mph2.6 kmh 29.70 in1005.8 mb 0.10 in2.5 mm 0.00 in0.0 mm 0.20 in5.1 mm
08:30 AM 54.9°F12.7°C 52.9°F11.6°C 93% Calm Calm 1.6 mph2.6 kmh 29.70 in1005.8 mb 0.11 in2.8 mm 0.00 in0.0 mm 0.17 in4.3 mm
08:15 AM 54.9°F12.7°C 52.6°F11.4°C 92% Calm Calm 2.2 mph3.5 kmh 29.69 in1005.4 mb 0.11 in2.8 mm 0.00 in0.0 mm 0.15 in3.8 mm
08:00 AM 55.0°F12.8°C 52.5°F11.4°C 91% Calm Calm 1.6 mph2.6 kmh 29.70 in1005.8 mb 0.11 in2.8 mm 0.01 in0.3 mm 0.12 in3.0 mm
07:45 AM 55.2°F12.9°C 52.3°F11.3°C 90% Calm Calm 1.6 mph2.6 kmh 29.72 in1006.4 mb 0.10 in2.5 mm 0.16 in4.1 mm 0.10 in2.5 mm
07:30 AM 55.6°F13.1°C 51.1°F10.6°C 85% 0.7 mph ENE1.1 kmh ENE 1.6 mph2.6 kmh 29.74 in1007.1 mb 0.06 in1.5 mm 0.12 in3.0 mm 0.05 in1.3 mm
07:15 AM 56.5°F13.6°C 50.7°F10.4°C 81% 0.7 mph SSW1.1 kmh SSW 4.5 mph7.2 kmh 29.75 in1007.5 mb 0.03 in0.8 mm 0.12 in3.0 mm 0.03 in0.8 mm
07:00 AM 59.4°F15.2°C 47.6°F8.7°C 65% 4.5 mph WSW7.2 kmh WSW 9.8 mph15.8 kmh 29.76 in1007.8 mb 0.00 in0.0 mm 0.00 in0.0 mm 0.00 in0.0 mm
06:45 AM 60.3°F15.7°C 47.6°F8.7°C 63% 0.7 mph NNW1.1 kmh NNW 2.2 mph3.5 kmh 29.72 in1006.4 mb 0.00 in0.0 mm 0.00 in0.0 mm 0.00 in0.0 mm
06:30 AM 59.2°F15.1°C 47.0°F8.3°C 64% Calm Calm 1.6 mph2.6 kmh 29.71 in1006.1 mb 0.00 in0.0 mm 0.00 in0.0 mm 0.00 in0.0 mm
06:15 AM 59.0°F15.0°C 46.4°F8.0°C 63% Calm Calm 0.7 mph1.1 kmh 29.71 in1006.1 mb 0.00 in0.0 mm 0.00 in0.0 mm 0.00 in0.0 mm
06:00 AM 58.5°F14.7°C 46.3°F7.9°C 64% Calm Calm 0.7 mph1.1 kmh 29.73 in1006.8 mb 0.00 in0.0 mm 0.00 in0.0 mm 0.00 in0.0 mm
05:45 AM 58.6°F14.8°C 46.1°F7.8°C 63% Calm Calm 2.2 mph3.5 kmh 29.73 in1006.8 mb 0.00 in0.0 mm 0.00 in0.0 mm 0.00 in0.0 mm
05:30 AM 58.5°F14.7°C 45.9°F7.7°C 63% 1.6 mph N2.6 kmh N 2.2 mph3.5 kmh 29.75 in1007.5 mb 0.00 in0.0 mm 0.00 in0.0 mm 0.00 in0.0 mm
05:15 AM 58.3°F14.6°C 45.7°F7.6°C 63% Calm Calm 1.6 mph2.6 kmh 29.76 in1007.8 mb 0.00 in0.0 mm 0.00 in0.0 mm 0.00 in0.0 mm
05:00 AM 58.1°F14.5°C 45.1°F7.3°C 62% 0.7 mph N1.1 kmh N 2.2 mph3.5 kmh 29.76 in1007.8 mb 0.00 in0.0 mm 0.00 in0.0 mm 0.00 in0.0 mm
04:45 AM 57.7°F14.3°C 45.2°F7.3°C 63% 0.7 mph N1.1 kmh N 1.6 mph2.6 kmh 29.75 in1007.5 mb 0.00 in0.0 mm 0.00 in0.0 mm 0.00 in0.0 mm
04:30 AM 57.9°F14.4°C 45.0°F7.2°C 62% Calm Calm 2.2 mph3.5 kmh 29.77 in1008.1 mb 0.00 in0.0 mm 0.00 in0.0 mm 0.00 in0.0 mm
04:15 AM 58.5°F14.7°C 45.1°F7.3°C 61% 0.7 mph N1.1 kmh N 2.2 mph3.5 kmh 29.77 in1008.1 mb 0.00 in0.0 mm 0.00 in0.0 mm 0.00 in0.0 mm
04:00 AM 58.6°F14.8°C 45.2°F7.3°C 61% Calm Calm 2.2 mph3.5 kmh 29.78 in1008.5 mb 0.00 in0.0 mm 0.00 in0.0 mm 0.00 in0.0 mm
03:45 AM 58.5°F14.7°C 45.5°F7.5°C 62% 0.7 mph N1.1 kmh N 2.2 mph3.5 kmh 29.79 in1008.8 mb 0.00 in0.0 mm 0.00 in0.0 mm 0.00 in0.0 mm
03:30 AM 57.9°F14.4°C 45.0°F7.2°C 62% Calm Calm 2.2 mph3.5 kmh 29.80 in1009.1 mb 0.00 in0.0 mm 0.00 in0.0 mm 0.00 in0.0 mm
03:15 AM 56.8°F13.8°C 45.2°F7.3°C 65% Calm Calm 0.7 mph1.1 kmh 29.81 in1009.5 mb 0.00 in0.0 mm 0.00 in0.0 mm 0.00 in0.0 mm
03:00 AM 56.5°F13.6°C 44.9°F7.2°C 65% Calm Calm -- 29.82 in1009.8 mb 0.00 in0.0 mm 0.00 in0.0 mm 0.00 in0.0 mm
02:45 AM 56.7°F13.7°C 44.6°F7.0°C 64% Calm Calm 0.7 mph1.1 kmh 29.82 in1009.8 mb 0.00 in0.0 mm 0.00 in0.0 mm 0.00 in0.0 mm
02:30 AM 56.5°F13.6°C 44.4°F6.9°C 64% Calm Calm 0.7 mph1.1 kmh 29.81 in1009.5 mb 0.00 in0.0 mm 0.00 in0.0 mm 0.00 in0.0 mm
02:15 AM 57.0°F13.9°C 44.5°F6.9°C 63% Calm Calm 0.7 mph1.1 kmh 29.82 in1009.8 mb 0.00 in0.0 mm 0.00 in0.0 mm 0.00 in0.0 mm
02:00 AM 57.2°F14.0°C 44.3°F6.8°C 62% Calm Calm 0.7 mph1.1 kmh 29.83 in1010.2 mb 0.00 in0.0 mm 0.00 in0.0 mm 0.00 in0.0 mm
01:45 AM 57.6°F14.2°C 44.2°F6.8°C 61% Calm Calm 0.7 mph1.1 kmh 29.84 in1010.5 mb 0.00 in0.0 mm 0.00 in0.0 mm 0.00 in0.0 mm
01:30 AM 57.4°F14.1°C 44.0°F6.7°C 61% Calm Calm 0.7 mph1.1 kmh 29.85 in1010.8 mb 0.00 in0.0 mm 0.00 in0.0 mm 0.00 in0.0 mm
01:15 AM 57.4°F14.1°C 44.0°F6.7°C 61% Calm Calm 0.7 mph1.1 kmh 29.86 in1011.2 mb 0.00 in0.0 mm 0.00 in0.0 mm 0.00 in0.0 mm
01:00 AM 57.7°F14.3°C 43.9°F6.6°C 60% Calm Calm 0.7 mph1.1 kmh 29.86 in1011.2 mb 0.00 in0.0 mm 0.00 in0.0 mm 0.00 in0.0 mm
12:45 AM 57.7°F14.3°C 43.9°F6.6°C 60% Calm Calm 0.7 mph1.1 kmh 29.87 in1011.5 mb 0.00 in0.0 mm 0.00 in0.0 mm 0.00 in0.0 mm
12:30 AM 57.9°F14.4°C 44.1°F6.7°C 60% Calm Calm 0.7 mph1.1 kmh 29.88 in1011.9 mb 0.00 in0.0 mm 0.00 in0.0 mm 0.00 in0.0 mm
12:15 AM 57.4°F14.1°C 44.0°F6.7°C 61% Calm Calm -- 29.88 in1011.9 mb 0.00 in0.0 mm 0.00 in0.0 mm 0.00 in0.0 mm
12:00 AM 57.6°F14.2°C 44.2°F6.8°C 61% Calm Calm -- 29.88 in1011.9 mb 0.00 in0.0 mm 0.00 in0.0 mm 0.00 in0.0 mm